sensor_id;sensor_type;location;lat;lon;timestamp;P1;durP1;ratioP1;P2;durP2;ratioP2
14078;SDS011;7115;50.150;8.568;2022-07-05T00:00:22;1.10;;;0.57;;
14078;SDS011;7115;50.150;8.568;2022-07-05T00:02:48;1.47;;;0.70;;
14078;SDS011;7115;50.150;8.568;2022-07-05T00:05:15;3.13;;;0.60;;
14078;SDS011;7115;50.150;8.568;2022-07-05T00:07:42;2.30;;;0.60;;
14078;SDS011;7115;50.150;8.568;2022-07-05T00:10:09;2.40;;;0.80;;
14078;SDS011;7115;50.150;8.568;2022-07-05T00:12:35;1.87;;;0.80;;
14078;SDS011;7115;50.150;8.568;2022-07-05T00:15:02;4.00;;;1.33;;
14078;SDS011;7115;50.150;8.568;2022-07-05T00:17:29;1.57;;;1.40;;
14078;SDS011;7115;50.150;8.568;2022-07-05T00:19:56;1.20;;;0.70;;
14078;SDS011;7115;50.150;8.568;2022-07-05T00:22:23;2.70;;;1.13;;
14078;SDS011;7115;50.150;8.568;2022-07-05T00:24:55;4.50;;;2.23;;
14078;SDS011;7115;50.150;8.568;2022-07-05T00:27:22;4.43;;;1.70;;
14078;SDS011;7115;50.150;8.568;2022-07-05T00:29:49;5.53;;;1.53;;
14078;SDS011;7115;50.150;8.568;2022-07-05T00:32:16;3.23;;;1.20;;
14078;SDS011;7115;50.150;8.568;2022-07-05T00:34:43;1.13;;;0.60;;
14078;SDS011;7115;50.150;8.568;2022-07-05T00:37:10;3.17;;;1.00;;
14078;SDS011;7115;50.150;8.568;2022-07-05T00:39:37;2.77;;;1.13;;
14078;SDS011;7115;50.150;8.568;2022-07-05T00:42:04;2.60;;;1.00;;
14078;SDS011;7115;50.150;8.568;2022-07-05T00:44:32;4.53;;;1.07;;
14078;SDS011;7115;50.150;8.568;2022-07-05T00:47:01;5.47;;;1.70;;
14078;SDS011;7115;50.150;8.568;2022-07-05T00:49:29;3.23;;;0.93;;
14078;SDS011;7115;50.150;8.568;2022-07-05T00:51:56;3.67;;;1.20;;
14078;SDS011;7115;50.150;8.568;2022-07-05T00:54:45;1.27;;;0.80;;
14078;SDS011;7115;50.150;8.568;2022-07-05T00:57:12;2.40;;;0.97;;
14078;SDS011;7115;50.150;8.568;2022-07-05T00:59:39;1.67;;;1.00;;
14078;SDS011;7115;50.150;8.568;2022-07-05T01:02:06;4.63;;;0.70;;
14078;SDS011;7115;50.150;8.568;2022-07-05T01:04:33;1.40;;;0.77;;
14078;SDS011;7115;50.150;8.568;2022-07-05T01:07:00;2.03;;;0.90;;
14078;SDS011;7115;50.150;8.568;2022-07-05T01:09:29;1.60;;;0.90;;
14078;SDS011;7115;50.150;8.568;2022-07-05T01:11:56;4.43;;;1.10;;
14078;SDS011;7115;50.150;8.568;2022-07-05T01:14:23;1.30;;;0.90;;
14078;SDS011;7115;50.150;8.568;2022-07-05T01:16:51;2.73;;;1.00;;
14078;SDS011;7115;50.150;8.568;2022-07-05T01:19:19;2.27;;;0.80;;
14078;SDS011;7115;50.150;8.568;2022-07-05T01:21:48;6.87;;;1.13;;
14078;SDS011;7115;50.150;8.568;2022-07-05T01:24:16;3.03;;;0.67;;
14078;SDS011;7115;50.150;8.568;2022-07-05T01:26:45;1.80;;;0.70;;
14078;SDS011;7115;50.150;8.568;2022-07-05T01:29:14;1.33;;;0.73;;
14078;SDS011;7115;50.150;8.568;2022-07-05T01:31:42;3.17;;;0.97;;
14078;SDS011;7115;50.150;8.568;2022-07-05T01:34:09;1.57;;;0.67;;
14078;SDS011;7115;50.150;8.568;2022-07-05T01:36:35;1.70;;;0.70;;
14078;SDS011;7115;50.150;8.568;2022-07-05T01:39:04;2.00;;;0.80;;
14078;SDS011;7115;50.150;8.568;2022-07-05T01:41:32;3.50;;;0.80;;
14078;SDS011;7115;50.150;8.568;2022-07-05T01:43:59;2.70;;;0.83;;
14078;SDS011;7115;50.150;8.568;2022-07-05T01:46:27;1.00;;;0.70;;
14078;SDS011;7115;50.150;8.568;2022-07-05T01:49:00;1.40;;;0.90;;
14078;SDS011;7115;50.150;8.568;2022-07-05T01:51:33;1.87;;;0.70;;
14078;SDS011;7115;50.150;8.568;2022-07-05T01:54:01;1.00;;;0.90;;
14078;SDS011;7115;50.150;8.568;2022-07-05T01:56:27;2.20;;;0.60;;
14078;SDS011;7115;50.150;8.568;2022-07-05T01:58:55;1.37;;;0.70;;
14078;SDS011;7115;50.150;8.568;2022-07-05T02:01:36;2.17;;;1.00;;
14078;SDS011;7115;50.150;8.568;2022-07-05T02:04:05;1.63;;;1.07;;
14078;SDS011;7115;50.150;8.568;2022-07-05T02:06:33;0.73;;;0.57;;
14078;SDS011;7115;50.150;8.568;2022-07-05T02:09:01;2.10;;;0.90;;
14078;SDS011;7115;50.150;8.568;2022-07-05T02:11:29;2.17;;;0.80;;
14078;SDS011;7115;50.150;8.568;2022-07-05T02:13:59;1.37;;;0.90;;
14078;SDS011;7115;50.150;8.568;2022-07-05T02:16:26;2.63;;;0.80;;
14078;SDS011;7115;50.150;8.568;2022-07-05T02:18:54;2.17;;;0.80;;
14078;SDS011;7115;50.150;8.568;2022-07-05T02:21:22;1.37;;;0.77;;
14078;SDS011;7115;50.150;8.568;2022-07-05T02:23:49;2.10;;;0.93;;
14078;SDS011;7115;50.150;8.568;2022-07-05T02:26:16;3.33;;;0.90;;
14078;SDS011;7115;50.150;8.568;2022-07-05T02:28:43;1.73;;;0.97;;
14078;SDS011;7115;50.150;8.568;2022-07-05T02:31:10;2.10;;;1.17;;
14078;SDS011;7115;50.150;8.568;2022-07-05T02:33:37;2.23;;;0.90;;
14078;SDS011;7115;50.150;8.568;2022-07-05T02:36:07;4.43;;;0.90;;
14078;SDS011;7115;50.150;8.568;2022-07-05T02:38:39;3.10;;;1.10;;
14078;SDS011;7115;50.150;8.568;2022-07-05T02:41:06;0.97;;;0.70;;
14078;SDS011;7115;50.150;8.568;2022-07-05T02:43:34;4.87;;;0.90;;
14078;SDS011;7115;50.150;8.568;2022-07-05T02:46:01;4.60;;;1.30;;
14078;SDS011;7115;50.150;8.568;2022-07-05T02:48:29;3.73;;;0.90;;
14078;SDS011;7115;50.150;8.568;2022-07-05T02:50:56;2.30;;;0.93;;
14078;SDS011;7115;50.150;8.568;2022-07-05T02:53:23;3.03;;;0.80;;
14078;SDS011;7115;50.150;8.568;2022-07-05T02:55:50;1.80;;;0.80;;
14078;SDS011;7115;50.150;8.568;2022-07-05T02:58:17;4.43;;;0.93;;
14078;SDS011;7115;50.150;8.568;2022-07-05T03:00:44;1.97;;;0.93;;
14078;SDS011;7115;50.150;8.568;2022-07-05T03:03:12;1.67;;;0.80;;
14078;SDS011;7115;50.150;8.568;2022-07-05T03:05:39;3.17;;;1.13;;
14078;SDS011;7115;50.150;8.568;2022-07-05T03:08:05;3.50;;;1.00;;
14078;SDS011;7115;50.150;8.568;2022-07-05T03:10:33;0.93;;;0.83;;
14078;SDS011;7115;50.150;8.568;2022-07-05T03:13:00;2.50;;;0.90;;
14078;SDS011;7115;50.150;8.568;2022-07-05T03:15:27;1.33;;;0.70;;
14078;SDS011;7115;50.150;8.568;2022-07-05T03:17:54;1.33;;;0.90;;
14078;SDS011;7115;50.150;8.568;2022-07-05T03:20:21;1.10;;;0.90;;
14078;SDS011;7115;50.150;8.568;2022-07-05T03:22:48;3.77;;;1.20;;
14078;SDS011;7115;50.150;8.568;2022-07-05T03:25:15;4.50;;;1.27;;
14078;SDS011;7115;50.150;8.568;2022-07-05T03:27:41;1.83;;;1.00;;
14078;SDS011;7115;50.150;8.568;2022-07-05T03:30:08;2.20;;;0.90;;
14078;SDS011;7115;50.150;8.568;2022-07-05T03:32:36;2.30;;;0.90;;
14078;SDS011;7115;50.150;8.568;2022-07-05T03:35:02;2.43;;;0.90;;
14078;SDS011;7115;50.150;8.568;2022-07-05T03:37:29;2.47;;;0.90;;
14078;SDS011;7115;50.150;8.568;2022-07-05T03:39:56;3.73;;;1.10;;
14078;SDS011;7115;50.150;8.568;2022-07-05T03:42:23;1.47;;;0.80;;
14078;SDS011;7115;50.150;8.568;2022-07-05T03:44:49;3.13;;;0.90;;
14078;SDS011;7115;50.150;8.568;2022-07-05T03:47:16;2.53;;;1.20;;
14078;SDS011;7115;50.150;8.568;2022-07-05T03:49:43;2.93;;;1.23;;
14078;SDS011;7115;50.150;8.568;2022-07-05T03:52:10;1.33;;;1.20;;
14078;SDS011;7115;50.150;8.568;2022-07-05T03:54:37;2.57;;;1.00;;
14078;SDS011;7115;50.150;8.568;2022-07-05T03:57:04;1.00;;;0.90;;
14078;SDS011;7115;50.150;8.568;2022-07-05T03:59:30;7.20;;;1.57;;
14078;SDS011;7115;50.150;8.568;2022-07-05T04:01:57;2.13;;;0.90;;
14078;SDS011;7115;50.150;8.568;2022-07-05T04:04:24;3.93;;;1.30;;
14078;SDS011;7115;50.150;8.568;2022-07-05T04:06:51;2.10;;;0.73;;
14078;SDS011;7115;50.150;8.568;2022-07-05T04:09:17;2.67;;;1.30;;
14078;SDS011;7115;50.150;8.568;2022-07-05T04:11:44;1.97;;;1.13;;
14078;SDS011;7115;50.150;8.568;2022-07-05T04:14:11;1.73;;;0.90;;
14078;SDS011;7115;50.150;8.568;2022-07-05T04:16:38;3.27;;;1.10;;
14078;SDS011;7115;50.150;8.568;2022-07-05T04:19:04;6.47;;;1.03;;
14078;SDS011;7115;50.150;8.568;2022-07-05T04:21:31;2.73;;;1.07;;
14078;SDS011;7115;50.150;8.568;2022-07-05T04:23:58;1.57;;;0.83;;
14078;SDS011;7115;50.150;8.568;2022-07-05T04:26:25;1.87;;;1.10;;
14078;SDS011;7115;50.150;8.568;2022-07-05T04:28:51;3.07;;;0.90;;
14078;SDS011;7115;50.150;8.568;2022-07-05T04:31:22;2.63;;;1.13;;
14078;SDS011;7115;50.150;8.568;2022-07-05T04:33:50;2.40;;;0.93;;
14078;SDS011;7115;50.150;8.568;2022-07-05T04:36:17;6.37;;;1.00;;
14078;SDS011;7115;50.150;8.568;2022-07-05T04:38:44;3.07;;;1.33;;
14078;SDS011;7115;50.150;8.568;2022-07-05T04:41:11;4.17;;;1.00;;
14078;SDS011;7115;50.150;8.568;2022-07-05T04:43:37;2.67;;;1.20;;
14078;SDS011;7115;50.150;8.568;2022-07-05T04:46:04;2.47;;;0.93;;
14078;SDS011;7115;50.150;8.568;2022-07-05T04:48:31;2.43;;;1.23;;
14078;SDS011;7115;50.150;8.568;2022-07-05T04:50:58;3.27;;;1.00;;
14078;SDS011;7115;50.150;8.568;2022-07-05T04:53:25;2.13;;;1.43;;
14078;SDS011;7115;50.150;8.568;2022-07-05T04:55:51;4.50;;;1.40;;
14078;SDS011;7115;50.150;8.568;2022-07-05T04:58:18;3.83;;;1.30;;
14078;SDS011;7115;50.150;8.568;2022-07-05T05:00:45;10.50;;;2.97;;
14078;SDS011;7115;50.150;8.568;2022-07-05T05:03:12;8.90;;;3.07;;
14078;SDS011;7115;50.150;8.568;2022-07-05T05:05:39;10.17;;;3.33;;
14078;SDS011;7115;50.150;8.568;2022-07-05T05:08:05;4.50;;;1.50;;
14078;SDS011;7115;50.150;8.568;2022-07-05T05:10:32;7.97;;;1.50;;
14078;SDS011;7115;50.150;8.568;2022-07-05T05:12:59;8.33;;;1.80;;
14078;SDS011;7115;50.150;8.568;2022-07-05T05:15:25;7.43;;;1.40;;
14078;SDS011;7115;50.150;8.568;2022-07-05T05:17:52;5.37;;;1.07;;
14078;SDS011;7115;50.150;8.568;2022-07-05T05:20:19;5.00;;;1.70;;
14078;SDS011;7115;50.150;8.568;2022-07-05T05:22:46;7.27;;;2.20;;
14078;SDS011;7115;50.150;8.568;2022-07-05T05:25:13;8.03;;;1.80;;
14078;SDS011;7115;50.150;8.568;2022-07-05T05:27:44;7.80;;;1.83;;
14078;SDS011;7115;50.150;8.568;2022-07-05T05:30:14;11.73;;;2.70;;
14078;SDS011;7115;50.150;8.568;2022-07-05T05:32:44;11.53;;;1.93;;
14078;SDS011;7115;50.150;8.568;2022-07-05T05:35:11;5.40;;;1.87;;
14078;SDS011;7115;50.150;8.568;2022-07-05T05:37:47;10.47;;;2.20;;
14078;SDS011;7115;50.150;8.568;2022-07-05T05:40:17;9.07;;;1.67;;
14078;SDS011;7115;50.150;8.568;2022-07-05T05:42:45;12.13;;;1.97;;
14078;SDS011;7115;50.150;8.568;2022-07-05T05:45:12;5.97;;;1.60;;
14078;SDS011;7115;50.150;8.568;2022-07-05T05:47:49;11.23;;;2.13;;
14078;SDS011;7115;50.150;8.568;2022-07-05T05:50:18;10.87;;;2.07;;
14078;SDS011;7115;50.150;8.568;2022-07-05T05:52:46;5.40;;;1.80;;
14078;SDS011;7115;50.150;8.568;2022-07-05T05:55:13;9.57;;;2.10;;
14078;SDS011;7115;50.150;8.568;2022-07-05T05:57:40;8.57;;;1.60;;
14078;SDS011;7115;50.150;8.568;2022-07-05T06:00:07;9.30;;;1.70;;
14078;SDS011;7115;50.150;8.568;2022-07-05T06:02:35;7.47;;;1.53;;
14078;SDS011;7115;50.150;8.568;2022-07-05T06:05:02;2.97;;;1.33;;
14078;SDS011;7115;50.150;8.568;2022-07-05T06:07:29;3.43;;;1.27;;
14078;SDS011;7115;50.150;8.568;2022-07-05T06:09:56;2.47;;;1.00;;
14078;SDS011;7115;50.150;8.568;2022-07-05T06:12:23;4.27;;;1.50;;
14078;SDS011;7115;50.150;8.568;2022-07-05T06:14:49;4.03;;;1.33;;
14078;SDS011;7115;50.150;8.568;2022-07-05T06:17:16;4.00;;;1.00;;
14078;SDS011;7115;50.150;8.568;2022-07-05T06:19:43;4.20;;;1.03;;
14078;SDS011;7115;50.150;8.568;2022-07-05T06:22:10;2.07;;;1.20;;
14078;SDS011;7115;50.150;8.568;2022-07-05T06:24:37;3.03;;;1.17;;
14078;SDS011;7115;50.150;8.568;2022-07-05T06:27:04;3.80;;;1.27;;
14078;SDS011;7115;50.150;8.568;2022-07-05T06:29:31;2.50;;;1.30;;
14078;SDS011;7115;50.150;8.568;2022-07-05T06:31:58;2.50;;;0.87;;
14078;SDS011;7115;50.150;8.568;2022-07-05T06:34:26;3.40;;;1.13;;
14078;SDS011;7115;50.150;8.568;2022-07-05T06:36:53;2.60;;;1.20;;
14078;SDS011;7115;50.150;8.568;2022-07-05T06:39:20;3.57;;;1.30;;
14078;SDS011;7115;50.150;8.568;2022-07-05T06:41:47;2.63;;;1.10;;
14078;SDS011;7115;50.150;8.568;2022-07-05T06:44:14;2.57;;;1.70;;
14078;SDS011;7115;50.150;8.568;2022-07-05T06:47:01;4.00;;;1.30;;
14078;SDS011;7115;50.150;8.568;2022-07-05T06:49:28;1.50;;;1.00;;
14078;SDS011;7115;50.150;8.568;2022-07-05T06:51:55;2.10;;;0.90;;
14078;SDS011;7115;50.150;8.568;2022-07-05T06:54:22;3.30;;;1.00;;
14078;SDS011;7115;50.150;8.568;2022-07-05T06:57:10;1.50;;;0.93;;
14078;SDS011;7115;50.150;8.568;2022-07-05T06:59:58;4.67;;;1.40;;
14078;SDS011;7115;50.150;8.568;2022-07-05T07:02:28;2.93;;;1.00;;
14078;SDS011;7115;50.150;8.568;2022-07-05T07:04:56;3.77;;;1.00;;
14078;SDS011;7115;50.150;8.568;2022-07-05T07:07:41;4.73;;;1.20;;
14078;SDS011;7115;50.150;8.568;2022-07-05T07:10:27;3.27;;;1.10;;
14078;SDS011;7115;50.150;8.568;2022-07-05T07:12:59;2.93;;;1.20;;
14078;SDS011;7115;50.150;8.568;2022-07-05T07:15:28;1.90;;;1.00;;
14078;SDS011;7115;50.150;8.568;2022-07-05T07:17:57;3.90;;;1.00;;
14078;SDS011;7115;50.150;8.568;2022-07-05T07:20:25;7.87;;;1.30;;
14078;SDS011;7115;50.150;8.568;2022-07-05T07:22:53;3.23;;;1.40;;
14078;SDS011;7115;50.150;8.568;2022-07-05T07:25:20;9.07;;;1.30;;
14078;SDS011;7115;50.150;8.568;2022-07-05T07:27:51;5.70;;;1.23;;
14078;SDS011;7115;50.150;8.568;2022-07-05T07:30:21;2.27;;;1.10;;
14078;SDS011;7115;50.150;8.568;2022-07-05T07:32:50;3.37;;;1.20;;
14078;SDS011;7115;50.150;8.568;2022-07-05T07:35:17;7.93;;;1.37;;
14078;SDS011;7115;50.150;8.568;2022-07-05T07:37:45;2.47;;;1.13;;
14078;SDS011;7115;50.150;8.568;2022-07-05T07:40:13;3.97;;;1.40;;
14078;SDS011;7115;50.150;8.568;2022-07-05T07:42:40;5.13;;;1.00;;
14078;SDS011;7115;50.150;8.568;2022-07-05T07:45:08;3.23;;;1.10;;
14078;SDS011;7115;50.150;8.568;2022-07-05T07:47:37;6.10;;;1.20;;
14078;SDS011;7115;50.150;8.568;2022-07-05T07:50:05;5.57;;;1.20;;
14078;SDS011;7115;50.150;8.568;2022-07-05T07:52:33;4.37;;;1.73;;
14078;SDS011;7115;50.150;8.568;2022-07-05T07:55:03;3.63;;;1.50;;
14078;SDS011;7115;50.150;8.568;2022-07-05T07:57:32;2.93;;;1.10;;
14078;SDS011;7115;50.150;8.568;2022-07-05T08:00:00;2.23;;;1.00;;
14078;SDS011;7115;50.150;8.568;2022-07-05T08:02:28;4.27;;;1.37;;
14078;SDS011;7115;50.150;8.568;2022-07-05T08:04:55;3.23;;;1.10;;
14078;SDS011;7115;50.150;8.568;2022-07-05T08:07:24;3.17;;;0.70;;
14078;SDS011;7115;50.150;8.568;2022-07-05T08:09:52;2.03;;;0.90;;
14078;SDS011;7115;50.150;8.568;2022-07-05T08:12:19;2.07;;;0.63;;
14078;SDS011;7115;50.150;8.568;2022-07-05T08:14:47;1.37;;;0.83;;
14078;SDS011;7115;50.150;8.568;2022-07-05T08:17:15;2.53;;;0.70;;
14078;SDS011;7115;50.150;8.568;2022-07-05T08:19:43;2.27;;;1.00;;
14078;SDS011;7115;50.150;8.568;2022-07-05T08:22:29;2.10;;;0.90;;
14078;SDS011;7115;50.150;8.568;2022-07-05T08:24:57;2.70;;;0.87;;
14078;SDS011;7115;50.150;8.568;2022-07-05T08:27:25;1.37;;;0.77;;
14078;SDS011;7115;50.150;8.568;2022-07-05T08:29:53;2.40;;;1.10;;
14078;SDS011;7115;50.150;8.568;2022-07-05T08:32:21;2.03;;;0.70;;
14078;SDS011;7115;50.150;8.568;2022-07-05T08:34:49;2.63;;;0.90;;
14078;SDS011;7115;50.150;8.568;2022-07-05T08:37:18;1.63;;;0.60;;
14078;SDS011;7115;50.150;8.568;2022-07-05T08:39:45;1.60;;;0.70;;
14078;SDS011;7115;50.150;8.568;2022-07-05T08:42:15;2.47;;;0.60;;
14078;SDS011;7115;50.150;8.568;2022-07-05T08:44:44;2.10;;;0.77;;
14078;SDS011;7115;50.150;8.568;2022-07-05T08:47:16;1.13;;;0.70;;
14078;SDS011;7115;50.150;8.568;2022-07-05T08:49:44;3.73;;;0.93;;
14078;SDS011;7115;50.150;8.568;2022-07-05T08:52:16;2.80;;;0.63;;
14078;SDS011;7115;50.150;8.568;2022-07-05T08:54:48;2.73;;;0.90;;
14078;SDS011;7115;50.150;8.568;2022-07-05T08:57:18;1.57;;;0.80;;
14078;SDS011;7115;50.150;8.568;2022-07-05T08:59:46;5.30;;;0.90;;
14078;SDS011;7115;50.150;8.568;2022-07-05T09:02:15;1.03;;;0.60;;
14078;SDS011;7115;50.150;8.568;2022-07-05T09:04:44;1.30;;;0.87;;
14078;SDS011;7115;50.150;8.568;2022-07-05T09:07:14;1.70;;;0.63;;
14078;SDS011;7115;50.150;8.568;2022-07-05T09:09:45;1.90;;;0.60;;
14078;SDS011;7115;50.150;8.568;2022-07-05T09:12:15;1.70;;;0.80;;
14078;SDS011;7115;50.150;8.568;2022-07-05T09:14:48;2.07;;;0.53;;
14078;SDS011;7115;50.150;8.568;2022-07-05T09:17:16;1.90;;;0.60;;
14078;SDS011;7115;50.150;8.568;2022-07-05T09:19:43;4.93;;;0.67;;
14078;SDS011;7115;50.150;8.568;2022-07-05T09:22:16;2.33;;;0.83;;
14078;SDS011;7115;50.150;8.568;2022-07-05T09:24:43;1.70;;;0.70;;
14078;SDS011;7115;50.150;8.568;2022-07-05T09:27:13;2.10;;;0.80;;
14078;SDS011;7115;50.150;8.568;2022-07-05T09:29:52;1.90;;;0.70;;
14078;SDS011;7115;50.150;8.568;2022-07-05T09:32:27;4.13;;;0.83;;
14078;SDS011;7115;50.150;8.568;2022-07-05T09:34:56;1.73;;;0.73;;
14078;SDS011;7115;50.150;8.568;2022-07-05T09:37:42;2.63;;;0.90;;
14078;SDS011;7115;50.150;8.568;2022-07-05T09:40:12;2.30;;;0.83;;
14078;SDS011;7115;50.150;8.568;2022-07-05T09:42:46;3.23;;;0.73;;
14078;SDS011;7115;50.150;8.568;2022-07-05T09:45:23;2.07;;;0.77;;
14078;SDS011;7115;50.150;8.568;2022-07-05T09:47:53;7.03;;;1.07;;
14078;SDS011;7115;50.150;8.568;2022-07-05T09:50:41;2.53;;;0.80;;
14078;SDS011;7115;50.150;8.568;2022-07-05T09:56:14;1.43;;;1.03;;
14078;SDS011;7115;50.150;8.568;2022-07-05T09:58:42;2.80;;;0.80;;
14078;SDS011;7115;50.150;8.568;2022-07-05T10:01:27;1.20;;;0.70;;
14078;SDS011;7115;50.150;8.568;2022-07-05T10:03:56;4.40;;;1.00;;
14078;SDS011;7115;50.150;8.568;2022-07-05T10:06:28;1.77;;;0.70;;
14078;SDS011;7115;50.150;8.568;2022-07-05T10:08:59;2.60;;;1.00;;
14078;SDS011;7115;50.150;8.568;2022-07-05T10:11:27;3.57;;;0.87;;
14078;SDS011;7115;50.150;8.568;2022-07-05T10:13:55;1.33;;;0.70;;
14078;SDS011;7115;50.150;8.568;2022-07-05T10:16:26;4.33;;;1.10;;
14078;SDS011;7115;50.150;8.568;2022-07-05T10:18:54;2.93;;;0.57;;
14078;SDS011;7115;50.150;8.568;2022-07-05T10:21:24;6.03;;;0.77;;
14078;SDS011;7115;50.150;8.568;2022-07-05T10:23:53;2.30;;;0.80;;
14078;SDS011;7115;50.150;8.568;2022-07-05T10:26:23;1.40;;;0.80;;
14078;SDS011;7115;50.150;8.568;2022-07-05T10:28:52;1.93;;;0.93;;
14078;SDS011;7115;50.150;8.568;2022-07-05T10:31:27;2.83;;;0.60;;
14078;SDS011;7115;50.150;8.568;2022-07-05T10:33:56;1.30;;;0.77;;
14078;SDS011;7115;50.150;8.568;2022-07-05T10:36:27;3.17;;;0.80;;
14078;SDS011;7115;50.150;8.568;2022-07-05T10:38:54;2.23;;;0.73;;
14078;SDS011;7115;50.150;8.568;2022-07-05T10:41:23;3.33;;;1.00;;
14078;SDS011;7115;50.150;8.568;2022-07-05T10:43:55;2.37;;;1.17;;
14078;SDS011;7115;50.150;8.568;2022-07-05T10:46:37;3.33;;;0.93;;
14078;SDS011;7115;50.150;8.568;2022-07-05T10:49:10;1.97;;;0.90;;
14078;SDS011;7115;50.150;8.568;2022-07-05T10:51:42;2.20;;;1.07;;
14078;SDS011;7115;50.150;8.568;2022-07-05T10:54:16;3.27;;;0.90;;
14078;SDS011;7115;50.150;8.568;2022-07-05T11:00:08;1.50;;;0.90;;
14078;SDS011;7115;50.150;8.568;2022-07-05T11:02:38;2.13;;;0.90;;
14078;SDS011;7115;50.150;8.568;2022-07-05T11:05:06;4.03;;;0.90;;
14078;SDS011;7115;50.150;8.568;2022-07-05T11:10:25;5.60;;;1.17;;
14078;SDS011;7115;50.150;8.568;2022-07-05T11:12:53;1.90;;;1.00;;
14078;SDS011;7115;50.150;8.568;2022-07-05T11:15:22;3.03;;;1.10;;
14078;SDS011;7115;50.150;8.568;2022-07-05T11:17:50;3.43;;;0.97;;
14078;SDS011;7115;50.150;8.568;2022-07-05T11:20:42;2.67;;;1.00;;
14078;SDS011;7115;50.150;8.568;2022-07-05T11:23:11;0.80;;;0.70;;
14078;SDS011;7115;50.150;8.568;2022-07-05T11:25:40;2.90;;;1.10;;
14078;SDS011;7115;50.150;8.568;2022-07-05T11:33:29;4.33;;;0.90;;
14078;SDS011;7115;50.150;8.568;2022-07-05T11:35:59;2.40;;;1.07;;
14078;SDS011;7115;50.150;8.568;2022-07-05T11:38:27;1.77;;;0.90;;
14078;SDS011;7115;50.150;8.568;2022-07-05T11:41:17;0.90;;;0.70;;
14078;SDS011;7115;50.150;8.568;2022-07-05T11:43:44;2.77;;;1.00;;
14078;SDS011;7115;50.150;8.568;2022-07-05T11:46:24;3.27;;;0.80;;
14078;SDS011;7115;50.150;8.568;2022-07-05T11:49:11;1.17;;;0.80;;
14078;SDS011;7115;50.150;8.568;2022-07-05T11:51:52;1.60;;;0.80;;
14078;SDS011;7115;50.150;8.568;2022-07-05T11:54:25;1.67;;;0.93;;
14078;SDS011;7115;50.150;8.568;2022-07-05T11:56:55;1.67;;;0.70;;
14078;SDS011;7115;50.150;8.568;2022-07-05T11:59:25;1.80;;;0.80;;
14078;SDS011;7115;50.150;8.568;2022-07-05T12:01:53;1.90;;;0.80;;
14078;SDS011;7115;50.150;8.568;2022-07-05T12:06:51;1.80;;;0.50;;
14078;SDS011;7115;50.150;8.568;2022-07-05T12:09:24;2.17;;;0.70;;
14078;SDS011;7115;50.150;8.568;2022-07-05T12:11:54;3.30;;;0.80;;
14078;SDS011;7115;50.150;8.568;2022-07-05T12:14:47;1.93;;;0.70;;
14078;SDS011;7115;50.150;8.568;2022-07-05T12:17:19;1.17;;;0.80;;
14078;SDS011;7115;50.150;8.568;2022-07-05T12:19:52;2.50;;;1.00;;
14078;SDS011;7115;50.150;8.568;2022-07-05T12:22:29;3.80;;;0.97;;
14078;SDS011;7115;50.150;8.568;2022-07-05T12:25:02;2.63;;;0.83;;
14078;SDS011;7115;50.150;8.568;2022-07-05T12:27:33;0.70;;;0.60;;
14078;SDS011;7115;50.150;8.568;2022-07-05T12:30:03;1.10;;;0.90;;
14078;SDS011;7115;50.150;8.568;2022-07-05T12:32:32;2.07;;;0.97;;
14078;SDS011;7115;50.150;8.568;2022-07-05T12:35:01;3.43;;;2.53;;
14078;SDS011;7115;50.150;8.568;2022-07-05T12:37:32;4.27;;;1.67;;
14078;SDS011;7115;50.150;8.568;2022-07-05T12:40:07;1.53;;;1.30;;
14078;SDS011;7115;50.150;8.568;2022-07-05T12:42:37;2.63;;;1.40;;
14078;SDS011;7115;50.150;8.568;2022-07-05T12:45:12;2.50;;;1.40;;
14078;SDS011;7115;50.150;8.568;2022-07-05T12:47:50;1.47;;;0.80;;
14078;SDS011;7115;50.150;8.568;2022-07-05T12:50:22;0.87;;;0.80;;
14078;SDS011;7115;50.150;8.568;2022-07-05T12:53:03;2.83;;;1.00;;
14078;SDS011;7115;50.150;8.568;2022-07-05T12:55:57;1.20;;;0.80;;
14078;SDS011;7115;50.150;8.568;2022-07-05T12:58:52;2.40;;;0.80;;
14078;SDS011;7115;50.150;8.568;2022-07-05T13:01:32;6.53;;;1.50;;
14078;SDS011;7115;50.150;8.568;2022-07-05T13:04:08;2.10;;;1.00;;
14078;SDS011;7115;50.150;8.568;2022-07-05T13:09:51;1.43;;;1.00;;
14078;SDS011;7115;50.150;8.568;2022-07-05T13:12:20;2.43;;;0.70;;
14078;SDS011;7115;50.150;8.568;2022-07-05T13:14:52;1.27;;;0.80;;
14078;SDS011;7115;50.150;8.568;2022-07-05T13:17:21;2.00;;;0.90;;
14078;SDS011;7115;50.150;8.568;2022-07-05T13:19:51;1.90;;;0.90;;
14078;SDS011;7115;50.150;8.568;2022-07-05T13:22:20;1.07;;;0.83;;
14078;SDS011;7115;50.150;8.568;2022-07-05T13:24:49;1.03;;;0.63;;
14078;SDS011;7115;50.150;8.568;2022-07-05T13:27:18;0.77;;;0.60;;
14078;SDS011;7115;50.150;8.568;2022-07-05T13:29:54;4.33;;;0.87;;
14078;SDS011;7115;50.150;8.568;2022-07-05T13:32:22;1.63;;;0.80;;
14078;SDS011;7115;50.150;8.568;2022-07-05T13:34:50;1.07;;;0.90;;
14078;SDS011;7115;50.150;8.568;2022-07-05T13:37:19;1.17;;;0.70;;
14078;SDS011;7115;50.150;8.568;2022-07-05T13:39:46;1.30;;;0.80;;
14078;SDS011;7115;50.150;8.568;2022-07-05T13:42:14;1.60;;;0.97;;
14078;SDS011;7115;50.150;8.568;2022-07-05T13:44:41;1.43;;;0.87;;
14078;SDS011;7115;50.150;8.568;2022-07-05T13:47:12;2.93;;;0.93;;
14078;SDS011;7115;50.150;8.568;2022-07-05T13:49:39;4.33;;;1.00;;
14078;SDS011;7115;50.150;8.568;2022-07-05T13:52:09;2.53;;;0.77;;
14078;SDS011;7115;50.150;8.568;2022-07-05T13:54:36;1.50;;;0.90;;
14078;SDS011;7115;50.150;8.568;2022-07-05T13:57:05;2.77;;;1.00;;
14078;SDS011;7115;50.150;8.568;2022-07-05T13:59:33;0.90;;;0.80;;
14078;SDS011;7115;50.150;8.568;2022-07-05T14:02:01;1.93;;;1.00;;
14078;SDS011;7115;50.150;8.568;2022-07-05T14:04:29;1.90;;;1.00;;
14078;SDS011;7115;50.150;8.568;2022-07-05T14:06:57;4.33;;;0.93;;
14078;SDS011;7115;50.150;8.568;2022-07-05T14:09:25;2.80;;;0.80;;
14078;SDS011;7115;50.150;8.568;2022-07-05T14:11:54;1.10;;;0.90;;
14078;SDS011;7115;50.150;8.568;2022-07-05T14:14:21;3.37;;;1.03;;
14078;SDS011;7115;50.150;8.568;2022-07-05T14:16:48;2.93;;;1.20;;
14078;SDS011;7115;50.150;8.568;2022-07-05T14:19:15;2.30;;;1.00;;
14078;SDS011;7115;50.150;8.568;2022-07-05T14:21:42;2.70;;;1.00;;
14078;SDS011;7115;50.150;8.568;2022-07-05T14:24:13;3.20;;;1.30;;
14078;SDS011;7115;50.150;8.568;2022-07-05T14:26:40;3.23;;;1.00;;
14078;SDS011;7115;50.150;8.568;2022-07-05T14:29:09;1.53;;;1.37;;
14078;SDS011;7115;50.150;8.568;2022-07-05T14:31:36;1.97;;;0.93;;
14078;SDS011;7115;50.150;8.568;2022-07-05T14:34:04;1.97;;;1.17;;
14078;SDS011;7115;50.150;8.568;2022-07-05T14:36:32;1.50;;;1.00;;
14078;SDS011;7115;50.150;8.568;2022-07-05T14:38:59;6.80;;;1.60;;
14078;SDS011;7115;50.150;8.568;2022-07-05T14:41:27;4.60;;;1.10;;
14078;SDS011;7115;50.150;8.568;2022-07-05T14:43:55;2.87;;;1.20;;
14078;SDS011;7115;50.150;8.568;2022-07-05T14:46:22;1.83;;;1.10;;
14078;SDS011;7115;50.150;8.568;2022-07-05T14:48:49;1.40;;;1.07;;
14078;SDS011;7115;50.150;8.568;2022-07-05T14:51:16;1.30;;;1.07;;
14078;SDS011;7115;50.150;8.568;2022-07-05T14:53:43;2.53;;;1.13;;
14078;SDS011;7115;50.150;8.568;2022-07-05T14:56:14;3.10;;;1.20;;
14078;SDS011;7115;50.150;8.568;2022-07-05T14:58:41;1.90;;;1.03;;
14078;SDS011;7115;50.150;8.568;2022-07-05T15:01:08;1.57;;;1.43;;
14078;SDS011;7115;50.150;8.568;2022-07-05T15:03:36;5.40;;;1.27;;
14078;SDS011;7115;50.150;8.568;2022-07-05T15:06:03;1.33;;;1.00;;
14078;SDS011;7115;50.150;8.568;2022-07-05T15:08:30;2.33;;;1.30;;
14078;SDS011;7115;50.150;8.568;2022-07-05T15:10:58;4.60;;;1.10;;
14078;SDS011;7115;50.150;8.568;2022-07-05T15:13:25;2.00;;;1.20;;
14078;SDS011;7115;50.150;8.568;2022-07-05T15:15:53;3.87;;;1.33;;
14078;SDS011;7115;50.150;8.568;2022-07-05T15:18:23;2.57;;;1.10;;
14078;SDS011;7115;50.150;8.568;2022-07-05T15:20:50;2.67;;;1.40;;
14078;SDS011;7115;50.150;8.568;2022-07-05T15:23:25;2.27;;;1.23;;
14078;SDS011;7115;50.150;8.568;2022-07-05T15:25:54;2.43;;;0.97;;
14078;SDS011;7115;50.150;8.568;2022-07-05T15:28:23;1.97;;;1.53;;
14078;SDS011;7115;50.150;8.568;2022-07-05T15:30:50;1.70;;;1.20;;
14078;SDS011;7115;50.150;8.568;2022-07-05T15:33:18;1.57;;;1.07;;